Dades meteomassalio
Diari Summary for Abril 18, 2017 Units:  English    Metric   Both
« Previous Day
Next Day »
Diari Semanal Mensual Anual Personalitzat
  Maxima: Minima: Mijana:
Temperatura: TemperatureC °F 10.2 °F 17.4 °F
Rosada: DewpointC °F 5.5 °F 7.7 °F
Humitat: Humidity % 31 % 55 %
Velocitat del vent: WindSpeedKMH mph 0.0 mph 11.2 mph
Racha vent: WindSpeedGustKMH mph - -
Vent:- - WNW
Pressio: PressurehPa in 1013.1 in -
Pluja: 0.0 in    
Historical Graphs
 
 
Tabular Data for Abril 18, 2017
Time Temperature Dew Point Pressure Wind Wind Speed Wind Gust Humidity Rainfall Rate (Hourly) solar Conditions
TemperatureC °F DewpointC °F PressurehPa in Calm     Humidity % HourlyPrecipMM in SolarRadiationWatts/m^2 W/m2 Conditions
00:00 13.8 °F 10.0 °F 1016.1 in Calm     78 % 0.0 in 0.0 W/m2 CLR
00:05 13.9 °F 10.3 °F 1016.5 in Calm     79 % 0.0 in 0.0 W/m2 CLR
00:10 14.0 °F 10.2 °F 1016.5 in Calm     78 % 0.0 in 0.0 W/m2 CLR
00:15 14.1 °F 10.3 °F 1016.5 in Calm     78 % 0.0 in 0.0 W/m2 CLR
00:20 13.9 °F 10.0 °F 1016.5 in Calm     77 % 0.0 in 0.0 W/m2 CLR
00:25 13.7 °F 9.8 °F 1016.5 in Calm     77 % 0.0 in 0.0 W/m2 CLR
00:31 13.6 °F 9.6 °F 1016.5 in Calm     77 % 0.0 in 0.0 W/m2 CLR
00:36 13.3 °F 9.6 °F 1016.5 in Calm     78 % 0.0 in 0.0 W/m2 CLR
00:41 13.1 °F 9.3 °F 1016.5 in Calm     78 % 0.0 in 0.0 W/m2 CLR
00:46 12.9 °F 9.2 °F 1016.5 in Calm     78 % 0.0 in 0.0 W/m2 CLR
00:51 12.7 °F 9.2 °F 1016.5 in Calm     79 % 0.0 in 0.0 W/m2 CLR
00:56 12.6 °F 9.1 °F 1016.5 in Calm     79 % 0.0 in 0.0 W/m2 CLR
01:01 12.6 °F 9.2 °F 1016.8 in Calm     80 % 0.0 in 0.0 W/m2 CLR
01:06 12.5 °F 9.2 °F 1016.8 in Calm     80 % 0.0 in 0.0 W/m2 CLR
01:11 12.4 °F 9.1 °F 1016.8 in Calm     80 % 0.0 in 0.0 W/m2 CLR
01:16 12.3 °F 9.1 °F 1017.2 in Calm     81 % 0.0 in 0.0 W/m2 CLR
01:21 12.1 °F 8.9 °F 1017.2 in Calm     81 % 0.0 in 0.0 W/m2 CLR
01:26 12.0 °F 8.8 °F 1017.2 in Calm     81 % 0.0 in 0.0 W/m2 CLR
01:31 11.9 °F 8.7 °F 1017.2 in Calm     81 % 0.0 in 0.0 W/m2 CLR
01:36 11.9 °F 8.7 °F 1017.2 in Calm     81 % 0.0 in 0.0 W/m2 CLR
01:41 11.8 °F 8.8 °F 1017.2 in Calm     82 % 0.0 in 0.0 W/m2 CLR
01:46 11.8 °F 8.7 °F 1017.2 in Calm     81 % 0.0 in 0.0 W/m2 CLR
01:51 11.9 °F 8.7 °F 1017.5 in Calm     81 % 0.0 in 0.0 W/m2 CLR
01:57 12.0 °F 8.8 °F 1017.5 in Calm     81 % 0.0 in 0.0 W/m2 CLR
02:01 12.2 °F 8.9 °F 1017.5 in Calm     80 % 0.0 in 0.0 W/m2 CLR
02:06 12.3 °F 8.6 °F 1017.5 in Calm     78 % 0.0 in 0.0 W/m2 CLR
02:11 12.1 °F 8.2 °F 1017.5 in Calm     77 % 0.0 in 0.0 W/m2 CLR
02:16 11.8 °F 8.1 °F 1017.5 in Calm     78 % 0.0 in 0.0 W/m2 CLR
02:22 11.7 °F 8.2 °F 1017.5 in Calm     79 % 0.0 in 0.0 W/m2 CLR
02:27 11.7 °F 7.8 °F 1017.5 in Calm     77 % 0.0 in 0.0 W/m2 CLR
02:32 12.1 °F 8.2 °F 1017.5 in WNW 8.0 mph 8.0 mph 77 % 0.0 in 0.0 W/m2 CLR
02:37 12.9 °F 8.6 °F 1017.5 in WNW 9.7 mph 9.7 mph 75 % 0.0 in 0.0 W/m2 CLR
02:42 14.1 °F 8.9 °F 1017.5 in West 13.0 mph 13.0 mph 71 % 0.0 in 0.0 W/m2 CLR
02:47 14.7 °F 8.9 °F 1017.5 in WNW 3.7 mph 3.7 mph 68 % 0.0 in 0.0 W/m2 CLR
02:52 14.6 °F 8.5 °F 1017.5 in Calm     67 % 0.0 in 0.0 W/m2 CLR
02:57 14.3 °F 8.3 °F 1017.5 in Calm     67 % 0.0 in 0.0 W/m2 CLR
03:02 14.3 °F 8.5 °F 1017.5 in WSW 3.7 mph 3.7 mph 68 % 0.0 in 0.0 W/m2 CLR
03:07 14.4 °F 8.6 °F 1017.5 in SW 11.1 mph 11.1 mph 68 % 0.0 in 0.0 W/m2 CLR
03:12 14.4 °F 8.3 °F 1017.2 in WSW 8.0 mph 8.0 mph 67 % 0.0 in 0.0 W/m2 CLR
03:17 14.2 °F 8.3 °F 1017.2 in SW 9.3 mph 9.3 mph 68 % 0.0 in 0.0 W/m2 CLR
03:22 13.9 °F 8.1 °F 1017.2 in WSW 1.9 mph   68 % 0.0 in 0.0 W/m2 CLR
03:27 13.8 °F 8.2 °F 1017.2 in Calm     69 % 0.0 in 0.0 W/m2 CLR
03:32 13.8 °F 8.2 °F 1017.2 in Calm     69 % 0.0 in 0.0 W/m2 CLR
03:37 13.7 °F 8.1 °F 1017.2 in Calm     69 % 0.0 in 0.0 W/m2 CLR
03:42 13.4 °F 8.0 °F 1017.2 in WSW 4.8 mph 4.8 mph 70 % 0.0 in 0.0 W/m2 CLR
03:47 13.2 °F 7.9 °F 1017.2 in WSW 1.9 mph   70 % 0.0 in 0.0 W/m2 CLR
03:52 13.2 °F 8.1 °F 1017.2 in WSW 3.7 mph   71 % 0.0 in 0.0 W/m2 CLR
03:57 13.1 °F 7.8 °F 1017.5 in SW 5.6 mph 5.6 mph 70 % 0.0 in 0.0 W/m2 CLR
04:02 12.9 °F 7.8 °F 1017.2 in WSW 7.4 mph 7.4 mph 71 % 0.0 in 0.0 W/m2 CLR
04:07 12.7 °F 7.7 °F 1017.2 in WSW 5.6 mph 5.6 mph 72 % 0.0 in 0.0 W/m2 CLR
04:12 12.6 °F 7.7 °F 1017.2 in Calm     72 % 0.0 in 0.0 W/m2 CLR
04:17 12.7 °F 7.8 °F 1017.2 in Calm     72 % 0.0 in 0.0 W/m2 CLR
04:22 12.7 °F 7.6 °F 1017.2 in Calm     71 % 0.0 in 0.0 W/m2 CLR
04:27 12.4 °F 7.3 °F 1017.2 in Calm     71 % 0.0 in 0.0 W/m2 CLR
04:32 12.0 °F 7.3 °F 1017.2 in Calm     73 % 0.0 in 0.0 W/m2 CLR
04:37 12.1 °F 7.4 °F 1017.2 in Calm     73 % 0.0 in 0.0 W/m2 CLR
04:42 12.1 °F 7.4 °F 1017.2 in West 5.6 mph 5.6 mph 73 % 0.0 in 0.0 W/m2 CLR
04:47 12.2 °F 7.5 °F 1017.2 in Calm     73 % 0.0 in 0.0 W/m2 CLR
04:52 12.0 °F 7.1 °F 1017.2 in Calm     72 % 0.0 in 0.0 W/m2 CLR
04:57 11.4 °F 6.8 °F 1017.2 in Calm     73 % 0.0 in 0.0 W/m2 CLR
05:02 11.1 °F 6.7 °F 1016.8 in Calm     74 % 0.0 in 0.0 W/m2 CLR
05:07 10.9 °F 6.9 °F 1016.8 in WSW 7.4 mph 7.4 mph 76 % 0.0 in 0.0 W/m2 CLR
05:12 10.9 °F 7.0 °F 1016.8 in WSW 16.7 mph 16.7 mph 77 % 0.0 in 0.0 W/m2 CLR
05:17 11.2 °F 7.2 °F 1016.8 in West 16.7 mph 16.7 mph 76 % 0.0 in 0.0 W/m2 CLR
05:22 11.8 °F 7.3 °F 1016.8 in WSW 14.8 mph 14.8 mph 74 % 0.0 in 0.0 W/m2 CLR
05:27 12.1 °F 7.2 °F 1016.8 in West 14.8 mph 14.8 mph 72 % 0.0 in 0.0 W/m2 CLR
05:32 12.2 °F 7.3 °F 1016.8 in WSW 5.6 mph 5.6 mph 72 % 0.0 in 0.0 W/m2 CLR
05:37 12.2 °F 7.3 °F 1016.8 in SW 8.0 mph 8.0 mph 72 % 0.0 in 0.0 W/m2 CLR
05:42 12.1 °F 7.2 °F 1016.8 in SSW 7.4 mph 7.4 mph 72 % 0.0 in 0.0 W/m2 CLR
05:47 11.8 °F 6.9 °F 1016.8 in Calm     72 % 0.0 in 0.0 W/m2 CLR
05:52 11.3 °F 6.8 °F 1016.8 in SSW 7.4 mph 7.4 mph 74 % 0.0 in 0.0 W/m2 CLR
05:57 10.8 °F 6.6 °F 1016.8 in WSW 5.6 mph 5.6 mph 75 % 0.0 in 0.0 W/m2 CLR
06:02 10.6 °F 6.5 °F 1016.8 in SW 11.1 mph 11.1 mph 76 % 0.0 in 0.0 W/m2 CLR
06:07 10.3 °F 6.5 °F 1016.8 in WSW 11.1 mph 11.1 mph 77 % 0.0 in 0.0 W/m2 CLR
06:12 10.4 °F 6.7 °F 1016.8 in WSW 9.3 mph 9.3 mph 78 % 0.0 in 0.0 W/m2 CLR
06:17 10.3 °F 6.7 °F 1016.5 in WSW 11.3 mph 11.3 mph 78 % 0.0 in 0.0 W/m2 CLR
06:22 10.5 °F 6.8 °F 1016.5 in WSW 5.6 mph 5.6 mph 78 % 0.0 in 0.0 W/m2 CLR
06:27 10.6 °F 6.7 °F 1016.8 in WSW 11.1 mph 11.1 mph 77 % 0.0 in 0.0 W/m2 CLR
06:32 10.6 °F 6.7 °F 1016.8 in SW 13.0 mph 13.0 mph 77 % 0.0 in 0.0 W/m2 CLR
06:37 10.6 °F 6.7 °F 1016.8 in SW 11.1 mph 11.1 mph 77 % 0.0 in 0.0 W/m2 CLR
06:42 10.5 °F 6.4 °F 1016.8 in SW 5.6 mph 5.6 mph 76 % 0.0 in 0.0 W/m2 CLR
06:47 10.3 °F 6.4 °F 1016.8 in SW 11.3 mph 11.3 mph 77 % 0.0 in 0.0 W/m2 CLR
06:52 10.2 °F 6.5 °F 1016.8 in WSW 11.1 mph 11.1 mph 78 % 0.0 in 0.0 W/m2 CLR
06:57 10.3 °F 6.7 °F 1017.2 in WSW 11.3 mph 11.3 mph 78 % 0.0 in 0.0 W/m2 CLR
07:02 10.6 °F 6.7 °F 1017.2 in WSW 12.9 mph 12.9 mph 77 % 0.0 in 0.0 W/m2 CLR
07:07 10.6 °F 6.6 °F 1016.8 in SW 9.3 mph 9.3 mph 76 % 0.0 in 0.0 W/m2 OVC
07:12 10.6 °F 6.6 °F 1016.8 in Calm     76 % 0.0 in 0.0 W/m2 OVC
07:17 10.4 °F 6.3 °F 1017.2 in Calm     76 % 0.0 in 5.0 W/m2 OVC
07:22 10.3 °F 6.7 °F 1017.2 in WSW 7.4 mph 7.4 mph 78 % 0.0 in 9.0 W/m2 BKN
07:27 10.6 °F 6.7 °F 1017.2 in Calm     77 % 0.0 in 12.0 W/m2 BKN
07:32 10.8 °F 6.7 °F 1017.2 in WSW 6.4 mph 6.4 mph 76 % 0.0 in 16.0 W/m2 BKN
07:37 11.0 °F 6.7 °F 1017.2 in WSW 7.4 mph 7.4 mph 75 % 0.0 in 19.0 W/m2 BKN
07:42 11.2 °F 6.7 °F 1017.2 in WSW 7.4 mph 7.4 mph 74 % 0.0 in 23.0 W/m2 BKN
07:47 11.4 °F 6.9 °F 1017.2 in Calm     74 % 0.0 in 30.0 W/m2 BKN
07:52 11.6 °F 6.9 °F 1017.2 in Calm     73 % 0.0 in 40.0 W/m2 BKN
07:57 11.6 °F 6.9 °F 1017.5 in Calm     73 % 0.0 in 53.0 W/m2 SCT
08:02 11.5 °F 7.0 °F 1017.5 in Calm     74 % 0.0 in 63.0 W/m2 SCT
08:07 11.8 °F 7.1 °F 1017.5 in Calm     73 % 0.0 in 56.0 W/m2 SCT
08:12 11.9 °F 7.3 °F 1017.5 in Calm     73 % 0.0 in 81.0 W/m2 FEW
08:17 12.2 °F 7.3 °F 1017.5 in Calm     72 % 0.0 in 109.0 W/m2 FEW
08:19 12.2 °F 7.3 °F 1017.5 in Calm     72 % 0.0 in 114.0 W/m2 CLR
08:24 12.3 °F 7.4 °F 1017.5 in West 4.8 mph 4.8 mph 72 % 0.0 in 132.0 W/m2 CLR
08:29 12.7 °F 7.6 °F 1017.5 in Calm     71 % 0.0 in 135.0 W/m2 CLR
08:34 12.9 °F 7.6 °F 1017.8 in Calm     70 % 0.0 in 162.0 W/m2 CLR
08:39 12.8 °F 7.4 °F 1017.8 in Calm     70 % 0.0 in 172.0 W/m2 CLR
08:44 12.4 °F 7.3 °F 1017.8 in Calm     71 % 0.0 in 178.0 W/m2 CLR
08:49 12.3 °F 7.2 °F 1017.8 in Calm     71 % 0.0 in 192.0 W/m2 CLR
08:54 12.5 °F 7.6 °F 1017.8 in Calm     72 % 0.0 in 181.0 W/m2 CLR
08:59 12.9 °F 7.8 °F 1017.8 in Calm     71 % 0.0 in 209.0 W/m2 CLR
09:04 13.3 °F 7.9 °F 1017.8 in Calm     70 % 0.0 in 135.0 W/m2 CLR
09:09 13.4 °F 7.9 °F 1017.8 in Calm     69 % 0.0 in 185.0 W/m2 CLR
09:14 13.9 °F 7.6 °F 1017.8 in West 13.0 mph 13.0 mph 66 % 0.0 in 276.0 W/m2 CLR
09:19 14.6 °F 7.6 °F 1017.5 in West 9.3 mph 9.3 mph 63 % 0.0 in 299.0 W/m2 CLR
09:24 15.0 °F 7.6 °F 1017.5 in WNW 11.1 mph 11.7 mph 61 % 0.0 in 343.0 W/m2 CLR
09:29 15.2 °F 7.5 °F 1017.5 in WNW 24.1 mph 24.1 mph 60 % 0.0 in 355.0 W/m2 CLR
09:34 15.3 °F 7.3 °F 1017.5 in WNW 20.4 mph 20.4 mph 59 % 0.0 in 373.0 W/m2 CLR
09:39 15.6 °F 7.6 °F 1017.5 in West 16.7 mph 16.7 mph 59 % 0.0 in 385.0 W/m2 CLR
09:44 15.6 °F 7.4 °F 1017.5 in West 29.6 mph 29.6 mph 58 % 0.0 in 401.0 W/m2 CLR
09:49 15.6 °F 7.6 °F 1017.5 in NNW 19.3 mph 19.3 mph 59 % 0.0 in 418.0 W/m2 CLR
09:54 15.7 °F 7.2 °F 1017.5 in WNW 24.1 mph 24.1 mph 57 % 0.0 in 438.0 W/m2 CLR
09:59 15.6 °F 7.3 °F 1017.5 in NW 18.5 mph 18.5 mph 58 % 0.0 in 454.0 W/m2 CLR
10:04 15.7 °F 7.5 °F 1017.5 in West 25.9 mph 25.9 mph 58 % 0.0 in 469.0 W/m2 CLR
10:09 15.6 °F 7.4 °F 1017.5 in WSW 22.2 mph 22.2 mph 58 % 0.0 in 483.0 W/m2 CLR
10:14 15.8 °F 7.8 °F 1017.2 in WNW 13.0 mph 13.0 mph 59 % 0.0 in 499.0 W/m2 CLR
10:19 16.0 °F 7.5 °F 1017.2 in West 25.7 mph 25.7 mph 57 % 0.0 in 519.0 W/m2 CLR
10:24 16.2 °F 7.9 °F 1017.2 in NW 20.4 mph 20.4 mph 58 % 0.0 in 533.0 W/m2 CLR
10:29 16.3 °F 7.7 °F 1017.2 in WNW 13.0 mph 13.0 mph 57 % 0.0 in 545.0 W/m2 CLR
10:34 16.7 °F 7.3 °F 1017.2 in WNW 30.6 mph 30.6 mph 54 % 0.0 in 561.0 W/m2 CLR
10:39 16.7 °F 7.3 °F 1017.2 in NW 27.8 mph 27.8 mph 54 % 0.0 in 575.0 W/m2 CLR
10:44 16.8 °F 7.4 °F 1017.2 in NW 31.5 mph 31.5 mph 54 % 0.0 in 589.0 W/m2 CLR
10:49 16.7 °F 7.3 °F 1017.2 in NW 33.3 mph 33.3 mph 54 % 0.0 in 605.0 W/m2 CLR
10:54 16.8 °F 7.7 °F 1017.2 in WNW 20.4 mph 20.4 mph 55 % 0.0 in 617.0 W/m2 CLR
10:59 16.9 °F 7.5 °F 1017.2 in NW 18.5 mph 18.5 mph 54 % 0.0 in 631.0 W/m2 CLR
11:04 17.3 °F 7.9 °F 1017.2 in NW 29.0 mph 29.0 mph 54 % 0.0 in 643.0 W/m2 CLR
11:09 17.4 °F 7.5 °F 1017.2 in WNW 18.5 mph 18.5 mph 52 % 0.0 in 654.0 W/m2 CLR
11:14 17.6 °F 7.6 °F 1017.2 in NW 25.9 mph 25.9 mph 52 % 0.0 in 666.0 W/m2 CLR
11:19 17.6 °F 7.6 °F 1017.5 in NNW 27.8 mph 27.8 mph 52 % 0.0 in 677.0 W/m2 CLR
11:24 17.7 °F 7.7 °F 1017.5 in NNW 25.9 mph 25.9 mph 52 % 0.0 in 691.0 W/m2 CLR
11:29 17.7 °F 7.4 °F 1017.2 in WNW 22.2 mph 22.2 mph 51 % 0.0 in 700.0 W/m2 CLR
11:34 17.8 °F 7.8 °F 1017.2 in NW 20.4 mph 20.4 mph 52 % 0.0 in 710.0 W/m2 CLR
11:39 18.1 °F 7.4 °F 1017.2 in WNW 31.5 mph 31.5 mph 50 % 0.0 in 721.0 W/m2 CLR
11:44 18.2 °F 7.6 °F 1017.2 in West 27.4 mph 27.4 mph 50 % 0.0 in 737.0 W/m2 CLR
11:49 18.3 °F 8.0 °F 1017.2 in NW 24.1 mph 24.1 mph 51 % 0.0 in 745.0 W/m2 CLR
11:54 18.6 °F 7.9 °F 1017.2 in West 29.6 mph 29.6 mph 50 % 0.0 in 752.0 W/m2 CLR
11:59 18.6 °F 7.7 °F 1017.2 in West 25.9 mph 25.9 mph 49 % 0.0 in 761.0 W/m2 CLR
12:04 18.6 °F 8.2 °F 1016.8 in WNW 20.4 mph 20.4 mph 51 % 0.0 in 775.0 W/m2 CLR
12:09 19.0 °F 8.1 °F 1016.8 in NNW 18.5 mph 18.5 mph 49 % 0.0 in 784.0 W/m2 CLR
12:14 19.3 °F 8.0 °F 1016.8 in NW 27.8 mph 27.8 mph 48 % 0.0 in 795.0 W/m2 CLR
12:19 19.2 °F 7.6 °F 1016.8 in NW 22.2 mph 22.2 mph 47 % 0.0 in 800.0 W/m2 CLR
12:24 19.3 °F 8.1 °F 1016.8 in WNW 18.5 mph 18.5 mph 48 % 0.0 in 803.0 W/m2 CLR
12:29 19.7 °F 8.3 °F 1016.8 in NW 18.5 mph 18.5 mph 48 % 0.0 in 816.0 W/m2 CLR
12:34 19.9 °F 7.9 °F 1016.8 in NW 25.9 mph 25.9 mph 46 % 0.0 in 821.0 W/m2 CLR
12:39 19.4 °F 7.8 °F 1016.5 in NW 25.9 mph 25.9 mph 47 % 0.0 in 831.0 W/m2 CLR
12:44 19.7 °F 8.1 °F 1016.5 in WNW 22.2 mph 22.2 mph 47 % 0.0 in 837.0 W/m2 CLR
12:49 19.8 °F 8.1 °F 1016.5 in WSW 11.1 mph 11.1 mph 47 % 0.0 in 844.0 W/m2 CLR
12:54 19.9 °F 8.6 °F 1016.5 in NW 16.7 mph 16.7 mph 48 % 0.0 in 849.0 W/m2 CLR
12:59 20.2 °F 8.5 °F 1016.5 in NW 29.6 mph 29.6 mph 47 % 0.0 in 858.0 W/m2 CLR
13:04 20.3 °F 8.6 °F 1016.5 in NNW 24.1 mph 24.1 mph 47 % 0.0 in 860.0 W/m2 CLR
13:09 20.4 °F 9.1 °F 1016.5 in NNW 22.5 mph 22.5 mph 48 % 0.0 in 861.0 W/m2 CLR
13:14 20.6 °F 8.8 °F 1016.1 in West 25.9 mph 25.9 mph 47 % 0.0 in 860.0 W/m2 CLR
13:19 20.7 °F 8.9 °F 1016.1 in NW 7.4 mph 7.4 mph 47 % 0.0 in 824.0 W/m2 CLR
13:24 21.1 °F 9.1 °F 1016.1 in WNW 20.4 mph 20.4 mph 46 % 0.0 in 856.0 W/m2 CLR
13:29 21.2 °F 9.1 °F 1016.1 in WNW 31.5 mph 31.5 mph 46 % 0.0 in 881.0 W/m2 CLR
13:34 21.3 °F 8.8 °F 1016.1 in WNW 20.9 mph 20.9 mph 45 % 0.0 in 888.0 W/m2 CLR
13:39 21.5 °F 9.4 °F 1015.8 in NW 29.6 mph 29.6 mph 46 % 0.0 in 874.0 W/m2 CLR
13:44 21.3 °F 8.8 °F 1015.8 in NNW 16.7 mph 16.7 mph 45 % 0.0 in 889.0 W/m2 CLR
13:49 21.4 °F 8.9 °F 1015.8 in NNW 18.5 mph 18.5 mph 45 % 0.0 in 881.0 W/m2 CLR
13:54 21.6 °F 8.8 °F 1015.5 in NW 24.1 mph 24.1 mph 44 % 0.0 in 893.0 W/m2 CLR
13:59 21.8 °F 9.1 °F 1015.5 in Calm     44 % 0.0 in 896.0 W/m2 CLR
14:04 22.1 °F 9.2 °F 1015.5 in WNW 20.4 mph 20.4 mph 44 % 0.0 in 904.0 W/m2 CLR
14:09 22.1 °F 8.9 °F 1015.5 in NNW 18.5 mph 18.5 mph 43 % 0.0 in 853.0 W/m2 CLR
14:14 22.3 °F 8.8 °F 1015.5 in NNW 24.1 mph 24.1 mph 42 % 0.0 in 914.0 W/m2 CLR
14:19 22.4 °F 8.8 °F 1015.1 in WNW 20.9 mph 20.9 mph 42 % 0.0 in 898.0 W/m2 CLR
14:20 22.4 °F 8.9 °F 1015.1 in NW 6.4 mph 11.9 mph 42 % 0.0 in 898.0 W/m2 CLR
14:25 22.7 °F 9.2 °F 1015.5 in NW 16.7 mph 16.7 mph 42 % 0.0 in 786.0 W/m2 CLR
14:30 22.6 °F 8.7 °F 1015.1 in West 14.8 mph 14.8 mph 41 % 0.0 in 858.0 W/m2 CLR
14:35 22.9 °F 8.9 °F 1015.1 in West 11.1 mph 11.1 mph 41 % 0.0 in 925.0 W/m2 CLR
14:40 22.9 °F 9.0 °F 1015.1 in NNW 22.2 mph 22.2 mph 41 % 0.0 in 923.0 W/m2 CLR
14:45 22.8 °F 9.2 °F 1015.1 in NW 24.1 mph 24.1 mph 42 % 0.0 in 788.0 W/m2 CLR
14:50 22.7 °F 9.2 °F 1015.1 in North 18.5 mph 18.5 mph 42 % 0.0 in 684.0 W/m2 CLR
14:55 22.8 °F 9.6 °F 1015.1 in North 18.5 mph 18.5 mph 43 % 0.0 in 879.0 W/m2 CLR
15:00 23.0 °F 9.7 °F 1014.8 in North 19.3 mph 19.3 mph 43 % 0.0 in 902.0 W/m2 CLR
15:05 23.3 °F 9.7 °F 1014.8 in NW 19.3 mph 19.3 mph 42 % 0.0 in 858.0 W/m2 CLR
15:10 23.4 °F 9.4 °F 1014.8 in NW 3.7 mph   41 % 0.0 in 838.0 W/m2 CLR
15:15 23.6 °F 9.6 °F 1014.8 in Calm     41 % 0.0 in 842.0 W/m2 CLR
15:20 23.8 °F 9.4 °F 1014.8 in NW 24.1 mph 24.1 mph 40 % 0.0 in 846.0 W/m2 CLR
15:25 23.7 °F 9.6 °F 1014.4 in NW 19.3 mph 19.3 mph 41 % 0.0 in 833.0 W/m2 CLR
15:30 23.6 °F 9.6 °F 1014.4 in NNW 18.5 mph 18.5 mph 41 % 0.0 in 838.0 W/m2 CLR
15:35 23.5 °F 9.5 °F 1014.4 in ENE 6.4 mph 6.4 mph 41 % 0.0 in 821.0 W/m2 CLR
15:40 23.5 °F 9.5 °F 1014.4 in NW 20.4 mph 20.4 mph 41 % 0.0 in 786.0 W/m2 CLR
15:45 23.8 °F 9.7 °F 1014.4 in NNW 24.1 mph 24.1 mph 41 % 0.0 in 856.0 W/m2 CLR
15:50 23.8 °F 9.4 °F 1014.4 in NW 7.4 mph 7.4 mph 40 % 0.0 in 847.0 W/m2 CLR
15:55 23.9 °F 9.9 °F 1014.4 in NNW 16.7 mph 16.7 mph 41 % 0.0 in 831.0 W/m2 CLR
16:00 23.9 °F 9.5 °F 1014.1 in North 7.4 mph 7.4 mph 40 % 0.0 in 821.0 W/m2 CLR
16:05 23.8 °F 9.4 °F 1014.1 in North 24.1 mph 24.1 mph 40 % 0.0 in 810.0 W/m2 CLR
16:10 23.8 °F 9.1 °F 1014.1 in North 14.8 mph 17.5 mph 39 % 0.0 in 802.0 W/m2 CLR
16:15 24.1 °F 9.3 °F 1014.1 in North 18.5 mph 18.5 mph 39 % 0.0 in 793.0 W/m2 CLR
16:20 24.1 °F 8.9 °F 1014.1 in NNW 20.4 mph 20.4 mph 38 % 0.0 in 777.0 W/m2 CLR
16:25 24.2 °F 9.4 °F 1013.8 in NW 16.7 mph 16.7 mph 39 % 0.0 in 761.0 W/m2 CLR
16:30 24.4 °F 9.2 °F 1013.8 in NNE 20.4 mph 20.4 mph 38 % 0.0 in 742.0 W/m2 CLR
16:35 24.6 °F 9.3 °F 1013.8 in North 18.5 mph 18.5 mph 38 % 0.0 in 615.0 W/m2 CLR
16:40 24.1 °F 8.5 °F 1013.8 in NW 16.7 mph 16.7 mph 37 % 0.0 in 264.0 W/m2 CLR
16:45 24.0 °F 9.2 °F 1013.8 in North 16.7 mph 16.7 mph 39 % 0.0 in 610.0 W/m2 CLR
16:50 24.1 °F 8.8 °F 1013.8 in NNW 18.5 mph 18.5 mph 38 % 0.0 in 438.0 W/m2 CLR
16:51 24.1 °F 8.8 °F 1013.8 in North 18.5 mph 18.5 mph 38 % 0.0 in 438.0 W/m2 CLR
16:56 24.0 °F 8.8 °F 1013.8 in NNW 16.7 mph 16.7 mph 38 % 0.0 in 747.0 W/m2 CLR
17:01 24.3 °F 9.5 °F 1013.4 in NNW 16.7 mph 16.7 mph 39 % 0.0 in 707.0 W/m2 CLR
17:06 24.3 °F 9.5 °F 1013.4 in North 3.7 mph 3.7 mph 39 % 0.0 in 664.0 W/m2 CLR
17:11 24.4 °F 9.2 °F 1013.4 in North 24.1 mph 24.1 mph 38 % 0.0 in 612.0 W/m2 CLR
17:16 24.2 °F 8.9 °F 1013.4 in North 5.6 mph 5.6 mph 38 % 0.0 in 545.0 W/m2 CLR
17:21 24.1 °F 8.8 °F 1013.4 in North 20.4 mph 20.4 mph 38 % 0.0 in 459.0 W/m2 CLR
17:26 24.0 °F 8.8 °F 1013.4 in NNW 17.7 mph 17.7 mph 38 % 0.0 in 489.0 W/m2 CLR
17:31 23.9 °F 9.4 °F 1013.4 in North 3.7 mph 3.7 mph 40 % 0.0 in 494.0 W/m2 CLR
17:36 24.1 °F 8.9 °F 1013.4 in North 18.5 mph 18.5 mph 38 % 0.0 in 564.0 W/m2 CLR
17:41 24.2 °F 9.4 °F 1013.4 in NW 5.6 mph 5.6 mph 39 % 0.0 in 554.0 W/m2 CLR
17:46 24.4 °F 8.3 °F 1013.4 in NNW 5.6 mph 5.6 mph 36 % 0.0 in 536.0 W/m2 CLR
17:51 24.4 °F 8.3 °F 1013.4 in North 1.9 mph   36 % 0.0 in 512.0 W/m2 CLR
17:56 24.6 °F 8.1 °F 1013.4 in Calm   2.7 mph 35 % 0.0 in 497.0 W/m2 CLR
18:01 24.5 °F 7.6 °F 1013.4 in WNW 20.4 mph 20.4 mph 34 % 0.0 in 480.0 W/m2 CLR
18:06 24.4 °F 7.5 °F 1013.4 in Calm     34 % 0.0 in 462.0 W/m2 CLR
18:11 24.8 °F 7.4 °F 1013.4 in NW 8.0 mph 8.0 mph 33 % 0.0 in 438.0 W/m2 CLR
18:12 24.9 °F 7.1 °F 1013.1 in NW 8.0 mph 8.0 mph 32 % 0.0 in 432.0 W/m2 CLR
18:17 24.8 °F 7.4 °F 1013.4 in Calm     33 % 0.0 in 413.0 W/m2 CLR
18:22 24.9 °F 8.0 °F 1013.4 in NNW 6.4 mph 6.4 mph 34 % 0.0 in 399.0 W/m2 CLR
18:27 24.7 °F 7.7 °F 1013.4 in NNW 11.1 mph 11.1 mph 34 % 0.0 in 380.0 W/m2 CLR
18:29 24.6 °F 7.3 °F 1013.4 in NNW 7.4 mph 7.4 mph 33 % 0.0 in 376.0 W/m2 CLR
18:34 24.7 °F 7.8 °F 1013.4 in NW 9.3 mph 9.3 mph 34 % 0.0 in 355.0 W/m2 CLR
18:39 24.6 °F 7.7 °F 1013.4 in NW 7.4 mph 7.4 mph 34 % 0.0 in 339.0 W/m2 CLR
18:44 24.6 °F 7.7 °F 1013.1 in NNW 5.6 mph 5.6 mph 34 % 0.0 in 323.0 W/m2 CLR
18:49 24.6 °F 7.7 °F 1013.1 in NW 1.9 mph 2.1 mph 34 % 0.0 in 308.0 W/m2 CLR
18:54 24.4 °F 7.1 °F 1013.1 in NNW 13.0 mph 13.0 mph 33 % 0.0 in 292.0 W/m2 CLR
18:59 24.5 °F 7.2 °F 1013.1 in NNW 5.6 mph   33 % 0.0 in 272.0 W/m2 CLR
19:04 24.5 °F 6.7 °F 1013.1 in NW 11.1 mph 11.1 mph 32 % 0.0 in 257.0 W/m2 CLR
19:09 24.5 °F 6.3 °F 1013.1 in WNW 11.1 mph 11.1 mph 31 % 0.0 in 236.0 W/m2 CLR
19:14 24.4 °F 6.6 °F 1013.1 in NW 11.3 mph 11.3 mph 32 % 0.0 in 213.0 W/m2 CLR
19:19 24.3 °F 6.9 °F 1013.1 in WNW 5.6 mph 5.6 mph 33 % 0.0 in 193.0 W/m2 CLR
19:24 24.3 °F 6.5 °F 1013.4 in NNW 5.6 mph 5.6 mph 32 % 0.0 in 176.0 W/m2 CLR
19:29 24.3 °F 6.1 °F 1013.4 in NW 12.9 mph 12.9 mph 31 % 0.0 in 156.0 W/m2 CLR
19:34 24.1 °F 5.9 °F 1013.4 in NW 14.8 mph 14.8 mph 31 % 0.0 in 137.0 W/m2 CLR
19:40 23.9 °F 6.2 °F 1013.4 in NNW 18.5 mph 18.5 mph 32 % 0.0 in 118.0 W/m2 CLR
19:45 23.8 °F 5.6 °F 1013.4 in NW 7.4 mph 7.4 mph 31 % 0.0 in 102.0 W/m2 CLR
19:50 23.7 °F 6.1 °F 1013.4 in NW 8.0 mph 8.0 mph 32 % 0.0 in 86.0 W/m2 CLR
19:55 23.6 °F 5.9 °F 1013.4 in Calm     32 % 0.0 in 72.0 W/m2 FEW
20:00 23.5 °F 6.3 °F 1013.4 in NW 9.7 mph 9.7 mph 33 % 0.0 in 47.0 W/m2 SCT
20:05 23.2 °F 6.5 °F 1013.4 in NNW 14.8 mph 14.8 mph 34 % 0.0 in 32.0 W/m2 BKN
20:10 22.9 °F 6.6 °F 1013.4 in NW 5.6 mph 5.6 mph 35 % 0.0 in 23.0 W/m2 BKN
20:15 22.6 °F 6.4 °F 1013.4 in Calm     35 % 0.0 in 19.0 W/m2 BKN
20:20 22.3 °F 6.6 °F 1013.4 in Calm     36 % 0.0 in 16.0 W/m2 BKN
20:25 22.0 °F 6.6 °F 1013.8 in Calm     37 % 0.0 in 11.0 W/m2 BKN
20:30 21.7 °F 6.4 °F 1013.8 in NW 5.6 mph 5.6 mph 37 % 0.0 in 9.0 W/m2 BKN
20:35 21.6 °F 6.6 °F 1013.8 in NNW 8.0 mph 8.0 mph 38 % 0.0 in 7.0 W/m2 BKN
20:40 21.4 °F 6.2 °F 1013.8 in NW 13.0 mph 13.0 mph 37 % 0.0 in 0.0 W/m2 OVC
20:45 21.3 °F 6.1 °F 1013.8 in NW 11.1 mph 11.1 mph 37 % 0.0 in 0.0 W/m2 OVC
20:50 21.1 °F 6.2 °F 1013.8 in NNW 11.1 mph 11.1 mph 38 % 0.0 in 0.0 W/m2 OVC
20:55 20.9 °F 6.1 °F 1014.1 in NNW 11.1 mph 11.1 mph 38 % 0.0 in 0.0 W/m2 CLR
21:00 20.7 °F 5.9 °F 1014.1 in NNW 11.1 mph 11.1 mph 38 % 0.0 in 0.0 W/m2 CLR
21:05 20.6 °F 6.1 °F 1014.1 in NNW 14.8 mph 14.8 mph 39 % 0.0 in 0.0 W/m2 CLR
21:06 20.6 °F 6.1 °F 1014.1 in NW 14.8 mph 14.8 mph 39 % 0.0 in 0.0 W/m2 CLR
21:11 20.4 °F 6.0 °F 1014.1 in NNW 16.7 mph 16.7 mph 39 % 0.0 in 0.0 W/m2 CLR
21:16 20.3 °F 6.2 °F 1014.4 in NNW 18.5 mph 18.5 mph 40 % 0.0 in 0.0 W/m2 CLR
21:21 20.1 °F 6.7 °F 1014.4 in NW 16.7 mph 16.7 mph 42 % 0.0 in 0.0 W/m2 CLR
21:26 19.8 °F 6.9 °F 1014.4 in WNW 18.5 mph 18.5 mph 43 % 0.0 in 0.0 W/m2 CLR
21:31 19.7 °F 7.1 °F 1014.8 in NW 16.7 mph 16.7 mph 44 % 0.0 in 0.0 W/m2 CLR
21:36 19.5 °F 6.9 °F 1014.8 in NW 14.8 mph 14.8 mph 44 % 0.0 in 0.0 W/m2 CLR
21:41 19.4 °F 7.2 °F 1015.1 in NW 11.1 mph 11.1 mph 45 % 0.0 in 0.0 W/m2 CLR
21:46 19.2 °F 7.3 °F 1015.1 in NW 11.1 mph 11.1 mph 46 % 0.0 in 0.0 W/m2 CLR
21:51 18.9 °F 7.1 °F 1015.1 in WNW 8.0 mph 8.0 mph 46 % 0.0 in 0.0 W/m2 CLR
21:56 18.7 °F 7.2 °F 1015.1 in WNW 6.4 mph 6.4 mph 47 % 0.0 in 0.0 W/m2 CLR
22:01 18.6 °F 7.0 °F 1015.5 in NW 4.8 mph 4.8 mph 47 % 0.0 in 0.0 W/m2 CLR
22:06 18.3 °F 7.1 °F 1015.5 in NW 3.7 mph 3.7 mph 48 % 0.0 in 0.0 W/m2 CLR
22:11 18.2 °F 6.9 °F 1015.5 in WNW 3.7 mph 3.7 mph 48 % 0.0 in 0.0 W/m2 CLR
22:16 18.0 °F 7.1 °F 1015.8 in WNW 5.6 mph 5.6 mph 49 % 0.0 in 0.0 W/m2 CLR
22:21 18.0 °F 7.1 °F 1015.8 in WNW 5.6 mph 5.6 mph 49 % 0.0 in 0.0 W/m2 CLR
22:26 18.0 °F 6.8 °F 1015.8 in WNW 5.6 mph 5.6 mph 48 % 0.0 in 0.0 W/m2 CLR
22:31 17.8 °F 6.9 °F 1015.8 in West 6.4 mph 6.4 mph 49 % 0.0 in 0.0 W/m2 CLR
22:36 17.7 °F 6.9 °F 1016.1 in West 9.3 mph 9.3 mph 49 % 0.0 in 0.0 W/m2 CLR
22:41 17.7 °F 6.8 °F 1016.1 in WNW 11.3 mph 11.3 mph 49 % 0.0 in 0.0 W/m2 CLR
22:46 17.6 °F 6.8 °F 1016.1 in West 9.7 mph 9.7 mph 49 % 0.0 in 0.0 W/m2 CLR
22:51 17.6 °F 6.7 °F 1016.1 in West 16.1 mph 16.1 mph 49 % 0.0 in 0.0 W/m2 CLR
22:56 17.6 °F 6.7 °F 1016.1 in WNW 17.7 mph 17.7 mph 49 % 0.0 in 0.0 W/m2 CLR
23:01 17.4 °F 6.3 °F 1016.1 in West 24.1 mph 24.1 mph 48 % 0.0 in 0.0 W/m2 CLR
23:06 17.2 °F 6.1 °F 1016.1 in West 27.8 mph 27.8 mph 48 % 0.0 in 0.0 W/m2 CLR
23:11 17.0 °F 5.9 °F 1016.5 in WNW 20.4 mph 20.4 mph 48 % 0.0 in 0.0 W/m2 CLR
23:16 16.9 °F 6.1 °F 1016.5 in WNW 24.1 mph 24.1 mph 49 % 0.0 in 0.0 W/m2 CLR
23:21 16.8 °F 6.0 °F 1016.5 in WNW 29.0 mph 29.0 mph 49 % 0.0 in 0.0 W/m2 CLR
23:26 16.7 °F 5.9 °F 1016.5 in WNW 25.9 mph 25.9 mph 49 % 0.0 in 0.0 W/m2 CLR
23:31 16.6 °F 5.8 °F 1016.5 in WNW 25.9 mph 25.9 mph 49 % 0.0 in 0.0 W/m2 CLR
23:36 16.4 °F 5.7 °F 1016.5 in WNW 20.4 mph 20.4 mph 49 % 0.0 in 0.0 W/m2 CLR
23:41 16.3 °F 5.6 °F 1016.5 in WNW 24.1 mph 24.1 mph 49 % 0.0 in 0.0 W/m2 CLR
23:46 16.2 °F 5.8 °F 1016.5 in West 27.4 mph 27.4 mph 50 % 0.0 in 0.0 W/m2 CLR
23:51 16.1 °F 5.7 °F 1016.5 in WNW 27.8 mph 27.8 mph 50 % 0.0 in 0.0 W/m2 CLR
23:56 15.9 °F 5.5 °F 1016.5 in WNW 24.1 mph 24.1 mph 50 % 0.0 in 0.0 W/m2 CLR
Lo Temps de Massalio
Compliments of Weather Underground - 1.25 mb